createdAt,value
2018-12-13T00:00:28.543Z,79.96
2018-12-13T00:02:58.147Z,80.58
2018-12-13T00:05:27.858Z,79.74
2018-12-13T00:07:57.483Z,79.98
2018-12-13T00:10:27.086Z,80.69
2018-12-13T00:12:56.815Z,79.91
2018-12-13T00:18:09.340Z,79.96
2018-12-13T00:20:38.950Z,80.41
2018-12-13T00:23:08.559Z,79.34
2018-12-13T00:25:38.154Z,79.35
2018-12-13T00:28:07.759Z,79.86
2018-12-13T00:30:37.434Z,80.08
2018-12-13T00:33:07.083Z,79.33
2018-12-13T00:35:36.664Z,79.51
2018-12-13T00:38:06.503Z,79.80
2018-12-13T00:40:39.151Z,78.72
2018-12-13T00:43:08.864Z,79.09
2018-12-13T00:45:38.461Z,79.42
2018-12-13T00:48:08.098Z,78.72
2018-12-13T00:50:37.765Z,79.39
2018-12-13T00:53:07.379Z,79.66
2018-12-13T00:55:37.005Z,79.97
2018-12-13T00:58:06.628Z,79.67
2018-12-13T01:00:36.231Z,79.61
2018-12-13T01:03:05.866Z,79.08
2018-12-13T01:05:35.456Z,79.21
2018-12-13T01:08:05.147Z,79.19
2018-12-13T01:10:34.863Z,79.47
2018-12-13T01:13:04.516Z,79.37
2018-12-13T01:15:34.211Z,79.07
2018-12-13T01:18:03.977Z,79.12
2018-12-13T01:20:33.656Z,78.67
2018-12-13T01:23:03.319Z,79.85
2018-12-13T01:25:32.934Z,79.08
2018-12-13T01:28:02.554Z,79.65
2018-12-13T01:30:32.155Z,79.88
2018-12-13T01:33:01.779Z,79.85
2018-12-13T01:35:31.556Z,78.80
2018-12-13T01:38:01.203Z,79.17
2018-12-13T01:40:30.945Z,79.75
2018-12-13T01:43:00.637Z,79.75
2018-12-13T01:45:30.279Z,79.53
2018-12-13T01:47:59.974Z,79.87
2018-12-13T01:50:29.593Z,79.87
2018-12-13T01:52:59.174Z,79.27
2018-12-13T01:55:28.873Z,79.04
2018-12-13T01:57:58.508Z,79.91
2018-12-13T02:00:28.095Z,79.16
2018-12-13T02:02:57.702Z,79.80
2018-12-13T02:05:27.287Z,79.02
2018-12-13T02:07:56.895Z,79.80
2018-12-13T02:10:26.491Z,79.44
2018-12-13T02:12:56.106Z,79.00
2018-12-13T02:15:25.716Z,79.20
2018-12-13T02:17:55.334Z,79.63
2018-12-13T02:20:25.275Z,79.94
2018-12-13T02:22:54.972Z,80.17
2018-12-13T02:25:24.752Z,79.37
2018-12-13T02:27:54.615Z,79.75
2018-12-13T02:30:24.548Z,80.24
2018-12-13T02:32:54.152Z,79.55
2018-12-13T02:35:23.869Z,79.59
2018-12-13T02:37:53.789Z,80.06
2018-12-13T02:40:23.472Z,80.14
2018-12-13T02:42:53.060Z,79.55
2018-12-13T02:45:22.736Z,80.16
2018-12-13T02:47:52.327Z,80.45
2018-12-13T02:50:21.943Z,80.82
2018-12-13T02:52:51.541Z,81.25
2018-12-13T02:55:21.140Z,80.49
2018-12-13T02:58:00.407Z,80.75
2018-12-13T03:00:30.222Z,80.76
2018-12-13T03:02:59.803Z,80.52
2018-12-13T03:05:29.670Z,80.76
2018-12-13T03:07:59.326Z,81.26
2018-12-13T03:10:28.911Z,81.14
2018-12-13T03:12:58.516Z,81.97
2018-12-13T03:15:28.419Z,81.78
2018-12-13T03:17:58.130Z,81.55
2018-12-13T03:20:27.722Z,81.19
2018-12-13T03:22:57.308Z,81.75
2018-12-13T03:25:27.019Z,82.17
2018-12-13T03:27:56.791Z,81.72
2018-12-13T03:30:26.677Z,81.58
2018-12-13T03:32:56.273Z,82.31
2018-12-13T03:35:25.884Z,82.71
2018-12-13T03:37:55.479Z,82.65
2018-12-13T03:40:25.148Z,82.02
2018-12-13T03:42:54.739Z,82.20
2018-12-13T03:45:24.379Z,82.71
2018-12-13T03:47:53.963Z,82.66
2018-12-13T03:50:23.705Z,82.18
2018-12-13T03:52:53.315Z,82.61
2018-12-13T03:55:22.958Z,82.32
2018-12-13T03:57:52.580Z,83.04
2018-12-13T04:00:22.356Z,83.47
2018-12-13T04:02:51.953Z,82.28
2018-12-13T04:05:21.567Z,82.40
2018-12-13T04:07:51.403Z,82.54
2018-12-13T04:10:21.244Z,83.05
2018-12-13T04:12:50.835Z,82.78
2018-12-13T04:15:20.466Z,82.42
2018-12-13T04:17:50.213Z,82.73
2018-12-13T04:20:19.808Z,82.58
2018-12-13T04:22:49.469Z,82.35
2018-12-13T04:25:19.092Z,82.88
2018-12-13T04:27:48.688Z,83.26
2018-12-13T04:30:18.360Z,83.08
2018-12-13T04:32:48.082Z,82.25
2018-12-13T04:35:17.701Z,83.11
2018-12-13T04:37:47.291Z,82.10
2018-12-13T04:40:16.886Z,83.31
2018-12-13T04:42:46.486Z,82.82
2018-12-13T04:45:16.068Z,83.66
2018-12-13T04:47:45.672Z,83.30
2018-12-13T04:50:15.273Z,82.89
2018-12-13T04:52:44.873Z,83.08
2018-12-13T04:55:14.469Z,83.58
2018-12-13T04:57:45.664Z,83.11
2018-12-13T05:00:17.056Z,83.51
2018-12-13T05:02:47.264Z,83.15
2018-12-13T05:05:16.928Z,82.86
2018-12-13T05:07:46.581Z,83.40
2018-12-13T05:13:26.342Z,82.84
2018-12-13T05:15:55.942Z,82.60
2018-12-13T05:18:25.680Z,82.64
2018-12-13T05:20:57.691Z,82.88
2018-12-13T05:23:28.396Z,82.59
2018-12-13T05:26:03.025Z,83.25
2018-12-13T05:28:33.266Z,83.04
2018-12-13T05:31:10.283Z,83.20
2018-12-13T05:33:39.856Z,82.96
2018-12-13T05:36:09.775Z,83.44
2018-12-13T05:38:39.532Z,83.23
2018-12-13T05:41:09.113Z,82.51
2018-12-13T05:43:38.713Z,82.49
2018-12-13T05:46:08.520Z,83.08
2018-12-13T05:48:38.132Z,83.10
2018-12-13T05:51:07.755Z,83.36
2018-12-13T05:53:37.363Z,83.32
2018-12-13T05:56:06.961Z,83.21
2018-12-13T05:58:36.540Z,83.02
2018-12-13T06:01:06.426Z,82.83
2018-12-13T06:03:36.022Z,83.64
2018-12-13T06:06:05.723Z,83.72
2018-12-13T06:08:35.535Z,83.45
2018-12-13T06:11:05.215Z,83.87
2018-12-13T06:13:34.776Z,83.62
2018-12-13T06:16:04.436Z,83.62
2018-12-13T06:18:34.017Z,82.81
2018-12-13T06:21:03.645Z,82.70
2018-12-13T06:23:39.638Z,83.03
2018-12-13T06:26:09.235Z,83.43
2018-12-13T06:28:38.814Z,83.33
2018-12-13T06:31:08.436Z,83.49
2018-12-13T06:33:38.051Z,82.96
2018-12-13T06:36:07.710Z,83.33
2018-12-13T06:38:37.271Z,83.71
2018-12-13T06:41:06.922Z,83.20
2018-12-13T06:43:36.596Z,83.58
2018-12-13T06:46:06.261Z,83.27
2018-12-13T06:48:36.061Z,83.21
2018-12-13T06:51:05.790Z,83.58
2018-12-13T06:53:35.529Z,82.90
2018-12-13T06:56:05.475Z,83.04
2018-12-13T06:58:35.220Z,82.91
2018-12-13T07:01:04.852Z,83.54
2018-12-13T07:03:34.796Z,83.44
2018-12-13T07:06:05.954Z,83.21
2018-12-13T07:08:35.627Z,83.20
2018-12-13T07:11:05.291Z,83.82
2018-12-13T07:13:35.094Z,83.85
2018-12-13T07:16:04.834Z,83.41
2018-12-13T07:18:34.785Z,83.65
2018-12-13T07:21:04.713Z,83.02
2018-12-13T07:23:34.417Z,83.50
2018-12-13T07:26:04.877Z,83.15
2018-12-13T07:28:34.583Z,82.64
2018-12-13T07:31:04.422Z,83.21
2018-12-13T07:33:34.130Z,83.11
2018-12-13T07:36:05.299Z,83.85
2018-12-13T07:38:40.186Z,83.57
2018-12-13T07:41:09.849Z,82.99
2018-12-13T07:43:39.457Z,83.53
2018-12-13T07:46:09.525Z,83.25
2018-12-13T07:48:39.127Z,83.53
2018-12-13T07:51:09.441Z,83.26
2018-12-13T07:53:39.173Z,83.27
2018-12-13T07:56:08.832Z,83.96
2018-12-13T07:58:38.468Z,83.95
2018-12-13T08:01:08.111Z,83.57
2018-12-13T08:03:37.715Z,82.86
2018-12-13T08:06:07.415Z,82.86
2018-12-13T08:08:38.497Z,82.44
2018-12-13T08:11:09.780Z,83.35
2018-12-13T08:13:39.390Z,82.75
2018-12-13T08:16:09.044Z,82.94
2018-12-13T08:18:38.640Z,83.08
2018-12-13T08:21:08.319Z,82.67
2018-12-13T08:23:38.672Z,83.01
2018-12-13T08:26:08.302Z,82.67
2018-12-13T08:28:39.071Z,82.27
2018-12-13T08:31:21.504Z,83.06
2018-12-13T08:33:51.440Z,82.53
2018-12-13T08:36:21.039Z,83.30
2018-12-13T08:38:50.808Z,82.47
2018-12-13T08:41:20.463Z,81.97
2018-12-13T08:43:50.076Z,82.81
2018-12-13T08:46:19.990Z,81.72
2018-12-13T08:48:49.721Z,82.15
2018-12-13T08:51:19.385Z,82.15
2018-12-13T08:53:49.110Z,82.11
2018-12-13T08:56:19.841Z,81.87
2018-12-13T08:58:49.548Z,81.84
2018-12-13T09:01:21.794Z,81.63
2018-12-13T09:03:51.523Z,82.06
2018-12-13T09:06:21.165Z,82.24
2018-12-13T09:08:50.829Z,81.50
2018-12-13T09:11:20.422Z,81.20
2018-12-13T09:13:52.909Z,81.43
2018-12-13T09:16:31.410Z,82.04
2018-12-13T09:18:59.176Z,81.06
2018-12-13T09:21:32.706Z,81.27
2018-12-13T09:24:09.850Z,81.47
2018-12-13T09:26:39.838Z,81.56
2018-12-13T09:29:09.517Z,80.73
2018-12-13T09:31:39.176Z,80.67
2018-12-13T09:34:08.778Z,79.67
2018-12-13T09:36:38.536Z,80.06
2018-12-13T09:39:08.347Z,79.46
2018-12-13T09:41:38.017Z,79.35
2018-12-13T09:46:50.626Z,78.34
2018-12-13T09:49:20.250Z,78.62
2018-12-13T09:51:53.855Z,78.57
2018-12-13T09:54:23.490Z,78.23
2018-12-13T09:56:53.166Z,78.87
2018-12-13T09:59:25.977Z,78.80
2018-12-13T10:01:58.143Z,78.30
2018-12-13T10:04:27.758Z,77.93
2018-12-13T10:06:57.368Z,78.42
2018-12-13T10:09:27.028Z,77.13
2018-12-13T10:11:58.884Z,77.48
2018-12-13T10:14:28.576Z,77.63
2018-12-13T10:17:03.659Z,77.37
2018-12-13T10:19:34.509Z,76.80
2018-12-13T10:22:11.473Z,76.46
2018-12-13T10:24:38.283Z,76.94
2018-12-13T10:27:09.892Z,75.37
2018-12-13T10:29:39.508Z,75.76
2018-12-13T10:32:09.174Z,75.93
2018-12-13T10:34:42.325Z,75.92
2018-12-13T10:37:11.933Z,75.77
2018-12-13T10:39:41.836Z,75.45
2018-12-13T10:42:16.658Z,75.41
2018-12-13T10:44:46.632Z,74.29
2018-12-13T10:47:20.462Z,75.01
2018-12-13T10:49:51.200Z,74.87
2018-12-13T10:52:21.533Z,74.81
2018-12-13T10:54:56.294Z,73.26
2018-12-13T10:57:29.273Z,72.80
2018-12-13T11:00:01.195Z,72.63
2018-12-13T11:05:36.119Z,73.50
2018-12-13T11:08:09.594Z,72.47
2018-12-13T11:10:44.509Z,72.59
2018-12-13T11:13:14.187Z,72.98
2018-12-13T11:15:43.841Z,72.92
2018-12-13T11:18:13.446Z,71.92
2018-12-13T11:20:43.171Z,72.42
2018-12-13T11:23:12.768Z,72.42
2018-12-13T11:25:42.372Z,72.21
2018-12-13T11:28:34.047Z,72.20
2018-12-13T11:31:05.335Z,71.89
2018-12-13T11:33:36.659Z,71.93
2018-12-13T11:36:06.540Z,71.60
2018-12-13T11:38:36.149Z,72.45
2018-12-13T11:41:05.817Z,72.07
2018-12-13T11:43:35.451Z,71.41
2018-12-13T11:46:08.841Z,70.78
2018-12-13T11:48:38.575Z,71.39
2018-12-13T11:51:08.180Z,72.42
2018-12-13T11:53:37.884Z,71.79
2018-12-13T11:56:09.280Z,70.84
2018-12-13T11:58:38.996Z,70.67
2018-12-13T12:01:08.623Z,71.00
2018-12-13T12:03:38.290Z,70.77
2018-12-13T12:06:11.443Z,70.65
2018-12-13T12:08:41.160Z,71.42
2018-12-13T12:11:10.782Z,71.13
2018-12-13T12:13:40.382Z,70.79
2018-12-13T12:16:10.244Z,70.17
2018-12-13T12:18:39.952Z,70.56
2018-12-13T12:21:09.630Z,70.83
2018-12-13T12:23:39.466Z,70.81
2018-12-13T12:26:09.300Z,70.42
2018-12-13T12:28:40.729Z,70.09
2018-12-13T12:31:10.410Z,70.44
2018-12-13T12:33:40.035Z,70.06
2018-12-13T12:36:17.878Z,70.73
2018-12-13T12:38:48.991Z,70.06
2018-12-13T12:41:18.608Z,69.69
2018-12-13T12:43:48.301Z,70.07
2018-12-13T12:46:17.938Z,71.18
2018-12-13T12:48:47.541Z,70.79
2018-12-13T12:51:17.381Z,70.30
2018-12-13T12:53:46.983Z,69.67
2018-12-13T12:56:16.607Z,69.54
2018-12-13T12:58:46.372Z,69.84
2018-12-13T13:01:16.198Z,69.41
2018-12-13T13:03:45.832Z,69.66
2018-12-13T13:06:15.614Z,70.00
2018-12-13T13:08:45.208Z,69.14
2018-12-13T13:11:15.810Z,69.79
2018-12-13T13:13:45.662Z,69.31
2018-12-13T13:16:15.282Z,69.69
2018-12-13T13:18:44.883Z,69.51
2018-12-13T13:21:14.550Z,68.64
2018-12-13T13:23:44.190Z,68.79
2018-12-13T13:26:15.071Z,69.03
2018-12-13T13:28:44.686Z,69.07
2018-12-13T13:31:14.491Z,68.77
2018-12-13T13:33:45.736Z,68.90
2018-12-13T13:36:15.323Z,68.79
2018-12-13T13:38:44.911Z,69.08
2018-12-13T13:41:14.560Z,68.35
2018-12-13T13:43:44.170Z,69.12
2018-12-13T13:46:14.386Z,69.16
2018-12-13T13:48:44.101Z,68.46
2018-12-13T13:51:13.836Z,68.40
2018-12-13T13:53:43.435Z,68.53
2018-12-13T13:56:14.857Z,69.47
2018-12-13T13:58:45.296Z,69.00
2018-12-13T14:01:15.179Z,69.41
2018-12-13T14:03:44.822Z,68.67
2018-12-13T14:06:20.424Z,69.46
2018-12-13T14:11:53.332Z,68.69
2018-12-13T14:14:22.944Z,68.86
2018-12-13T14:16:52.545Z,68.64
2018-12-13T14:19:22.115Z,68.30
2018-12-13T14:21:51.681Z,69.32
2018-12-13T14:24:21.324Z,68.98
2018-12-13T14:26:51.016Z,69.53
2018-12-13T14:29:20.598Z,69.69
2018-12-13T14:31:56.327Z,70.41
2018-12-13T14:34:26.071Z,70.03
2018-12-13T14:36:55.777Z,70.14
2018-12-13T14:39:28.401Z,70.09
2018-12-13T14:41:58.070Z,70.90
2018-12-13T14:44:27.893Z,69.91
2018-12-13T14:49:33.603Z,69.77
2018-12-13T14:52:03.223Z,70.59
2018-12-13T14:54:32.931Z,70.37
2018-12-13T14:57:02.690Z,70.71
2018-12-13T14:59:32.361Z,70.49
2018-12-13T15:02:02.251Z,70.59
2018-12-13T15:04:31.918Z,70.55
2018-12-13T15:07:01.636Z,70.17
2018-12-13T15:09:31.329Z,70.40
2018-12-13T15:12:01.506Z,70.61
2018-12-13T15:14:31.243Z,69.78
2018-12-13T15:17:01.209Z,70.17
2018-12-13T15:19:30.904Z,70.11
2018-12-13T15:22:00.834Z,69.74
2018-12-13T15:24:31.333Z,70.52
2018-12-13T15:27:00.996Z,70.99
2018-12-13T15:29:30.632Z,70.96
2018-12-13T15:32:00.232Z,71.34
2018-12-13T15:34:30.105Z,71.21
2018-12-13T15:36:59.855Z,71.06
2018-12-13T15:39:29.618Z,71.55
2018-12-13T15:41:59.221Z,71.85
2018-12-13T15:44:30.115Z,72.40
2018-12-13T15:47:02.371Z,72.52
2018-12-13T15:49:32.150Z,71.78
2018-12-13T15:52:01.966Z,71.72
2018-12-13T15:54:33.432Z,72.55
2018-12-13T15:57:03.427Z,72.94
2018-12-13T15:59:32.999Z,72.75
2018-12-13T16:02:02.592Z,72.76
2018-12-13T16:04:32.330Z,72.29
2018-12-13T16:07:01.915Z,72.63
2018-12-13T16:09:31.641Z,72.20
2018-12-13T16:12:01.274Z,73.12
2018-12-13T16:14:30.892Z,72.54
2018-12-13T16:17:00.484Z,72.34
2018-12-13T16:19:30.097Z,72.93
2018-12-13T16:21:59.677Z,73.04
2018-12-13T16:24:29.388Z,73.03
2018-12-13T16:26:59.280Z,73.01
2018-12-13T16:29:28.952Z,73.10
2018-12-13T16:31:58.499Z,73.57
2018-12-13T16:34:28.164Z,73.83
2018-12-13T16:36:57.776Z,73.95
2018-12-13T16:39:27.375Z,73.97
2018-12-13T16:41:56.957Z,73.70
2018-12-13T16:44:26.618Z,74.35
2018-12-13T16:46:56.498Z,74.75
2018-12-13T16:49:26.187Z,73.91
2018-12-13T16:51:55.778Z,74.40
2018-12-13T16:54:25.368Z,74.06
2018-12-13T16:56:54.966Z,74.82
2018-12-13T16:59:24.567Z,74.29
2018-12-13T17:01:54.230Z,74.81
2018-12-13T17:04:23.832Z,74.30
2018-12-13T17:06:53.453Z,74.58
2018-12-13T17:09:23.060Z,74.38
2018-12-13T17:11:52.702Z,74.50
2018-12-13T17:14:22.291Z,74.33
2018-12-13T17:16:51.952Z,74.82
2018-12-13T17:19:21.772Z,74.82
2018-12-13T17:21:51.957Z,75.10
2018-12-13T17:24:21.770Z,74.40
2018-12-13T17:26:51.906Z,74.37
2018-12-13T17:29:22.505Z,74.97
2018-12-13T17:31:52.112Z,75.28
2018-12-13T17:34:23.309Z,75.23
2018-12-13T17:36:52.903Z,74.71
2018-12-13T17:39:22.518Z,74.86
2018-12-13T17:41:52.090Z,74.30
2018-12-13T17:44:21.690Z,74.46
2018-12-13T17:46:51.543Z,74.63
2018-12-13T17:49:22.555Z,74.60
2018-12-13T17:51:52.175Z,74.51
2018-12-13T17:54:21.796Z,73.99
2018-12-13T17:56:52.134Z,74.40
2018-12-13T17:59:21.724Z,73.73
2018-12-13T18:01:51.296Z,74.06
2018-12-13T18:04:20.913Z,74.93
2018-12-13T18:06:51.456Z,73.81
2018-12-13T18:09:21.054Z,73.98
2018-12-13T18:11:50.631Z,73.93
2018-12-13T18:14:20.229Z,74.17
2018-12-13T18:16:49.839Z,73.97
2018-12-13T18:19:22.371Z,74.05
2018-12-13T18:21:51.964Z,73.80
2018-12-13T18:24:21.592Z,74.55
2018-12-13T18:26:52.011Z,74.59
2018-12-13T18:29:21.593Z,74.28
2018-12-13T18:31:51.182Z,74.52
2018-12-13T18:34:20.778Z,74.09
2018-12-13T18:36:50.377Z,74.37
2018-12-13T18:39:19.939Z,74.51
2018-12-13T18:41:49.531Z,74.80
2018-12-13T18:44:19.130Z,74.52
2018-12-13T18:46:49.197Z,74.82
2018-12-13T18:49:19.491Z,74.70
2018-12-13T18:51:49.087Z,75.44
2018-12-13T18:54:20.493Z,75.55
2018-12-13T18:56:50.266Z,75.56
2018-12-13T18:59:19.936Z,76.24
2018-12-13T19:01:49.525Z,76.34
2018-12-13T19:04:19.111Z,76.33
2018-12-13T19:06:50.835Z,76.58
2018-12-13T19:09:22.354Z,75.94
2018-12-13T19:11:51.966Z,76.46
2018-12-13T19:14:21.596Z,76.75
2018-12-13T19:16:52.439Z,76.59
2018-12-13T19:19:22.015Z,76.87
2018-12-13T19:21:52.711Z,77.25
2018-12-13T19:24:25.210Z,77.50
2018-12-13T19:26:55.999Z,77.44
2018-12-13T19:29:26.431Z,77.24
2018-12-13T19:31:57.034Z,77.79
2018-12-13T19:34:28.594Z,77.68
2018-12-13T19:36:58.339Z,77.74
2018-12-13T19:39:28.903Z,77.42
2018-12-13T19:41:59.436Z,77.78
2018-12-13T19:44:29.293Z,78.35
2018-12-13T19:46:59.875Z,78.32
2018-12-13T19:49:30.368Z,77.93
2018-12-13T19:52:00.968Z,78.66
2018-12-13T19:57:41.139Z,78.46
2018-12-13T20:00:12.003Z,79.09
2018-12-13T20:02:42.460Z,78.43
2018-12-13T20:05:13.005Z,79.09
2018-12-13T20:07:43.195Z,79.65
2018-12-13T20:10:13.810Z,78.67
2018-12-13T20:12:44.454Z,79.52
2018-12-13T20:15:15.040Z,79.00
2018-12-13T20:17:45.941Z,79.28
2018-12-13T20:20:19.114Z,79.24
2018-12-13T20:22:52.077Z,79.44
2018-12-13T20:25:22.754Z,79.50
2018-12-13T20:27:53.571Z,78.74
2018-12-13T20:30:24.169Z,79.06
2018-12-13T20:32:54.696Z,78.60
2018-12-13T20:35:25.691Z,78.43
2018-12-13T20:37:56.704Z,78.96
2018-12-13T20:40:27.313Z,78.27
2018-12-13T20:42:58.326Z,78.99
2018-12-13T20:45:30.545Z,78.96
2018-12-13T20:48:01.414Z,79.07
2018-12-13T20:50:31.119Z,78.57
2018-12-13T20:53:02.063Z,78.33
2018-12-13T20:55:32.735Z,78.72
2018-12-13T20:58:03.520Z,78.47
2018-12-13T21:00:34.440Z,78.80
2018-12-13T21:03:05.747Z,79.07
2018-12-13T21:05:36.419Z,78.61
2018-12-13T21:08:19.876Z,77.96
2018-12-13T21:10:50.565Z,78.89
2018-12-13T21:13:20.910Z,78.24
2018-12-13T21:15:51.580Z,78.27
2018-12-13T21:18:22.369Z,78.24
2018-12-13T21:20:53.193Z,78.49
2018-12-13T21:23:23.865Z,77.98
2018-12-13T21:25:57.192Z,78.49
2018-12-13T21:28:27.776Z,78.23
2018-12-13T21:30:58.341Z,78.56
2018-12-13T21:33:28.938Z,78.17
2018-12-13T21:35:59.617Z,78.10
2018-12-13T21:38:30.031Z,78.55
2018-12-13T21:41:01.794Z,78.18
2018-12-13T21:43:32.525Z,78.49
2018-12-13T21:46:02.526Z,77.89
2018-12-13T21:48:34.236Z,78.02
2018-12-13T21:51:04.885Z,78.42
2018-12-13T21:53:34.920Z,78.85
2018-12-13T21:56:07.691Z,78.36
2018-12-13T21:58:37.299Z,78.46
2018-12-13T22:01:06.918Z,79.21
2018-12-13T22:03:36.517Z,78.95
2018-12-13T22:06:07.487Z,78.46
2018-12-13T22:08:42.354Z,78.24
2018-12-13T22:11:20.029Z,78.67
2018-12-13T22:13:50.724Z,78.11
2018-12-13T22:16:24.171Z,78.43
2018-12-13T22:18:59.405Z,78.82
2018-12-13T22:21:30.682Z,78.01
2018-12-13T22:24:02.221Z,78.46
2018-12-13T22:26:35.700Z,79.15
2018-12-13T22:29:08.304Z,79.02
2018-12-13T22:31:40.605Z,78.32
2018-12-13T22:34:13.171Z,78.77
2018-12-13T22:36:43.207Z,78.46
2018-12-13T22:39:13.069Z,78.78
2018-12-13T22:41:42.700Z,79.06
2018-12-13T22:44:12.295Z,79.46
2018-12-13T22:46:41.943Z,78.66
2018-12-13T22:49:11.567Z,79.52
2018-12-13T22:51:41.198Z,79.15
2018-12-13T22:54:10.799Z,78.48
2018-12-13T22:56:40.634Z,78.66
2018-12-13T22:59:10.236Z,78.62
2018-12-13T23:01:40.168Z,79.28
2018-12-13T23:04:09.760Z,79.31
2018-12-13T23:06:39.357Z,79.56
2018-12-13T23:09:08.955Z,79.20
2018-12-13T23:11:38.548Z,79.54
2018-12-13T23:14:08.166Z,79.38
2018-12-13T23:16:37.765Z,79.29
2018-12-13T23:19:07.404Z,78.76
2018-12-13T23:21:37.006Z,79.19
2018-12-13T23:24:06.592Z,79.28
2018-12-13T23:26:36.198Z,79.00
2018-12-13T23:29:05.906Z,79.51
2018-12-13T23:31:35.556Z,79.97
2018-12-13T23:34:05.200Z,79.29
2018-12-13T23:36:34.802Z,78.98
2018-12-13T23:39:05.535Z,79.28
2018-12-13T23:41:39.161Z,80.22
2018-12-13T23:44:06.790Z,79.81
2018-12-13T23:46:36.438Z,79.75
2018-12-13T23:49:08.649Z,79.44
2018-12-13T23:51:38.271Z,79.66
2018-12-13T23:54:07.882Z,79.60
2018-12-13T23:56:37.531Z,79.61
2018-12-13T23:59:07.171Z,79.27
